Wilkesville, Ohio
Current Conditions -  °F | °C
As of 1:35 PM on Thursday 23 Oct 2014 (Local Time) from KUNI Reporting Station
Clear Clear  
Wind Chill: 56°   Ceiling: Unl
Heat Index: 56°   Visibility: 10mi
Dew Point: 39°   Wind: 5mph
Humidity: 53%   Direction: 360°N
Pressure: 30.17"   Gusts: NA
Location:  39.07°N, 82.33°W
Report Text: KUNI 231735Z AUTO 36004KT 10SM CLR 14/04 A3017 RMK AO2 T01360041
Loading
Personal Weather Stations






























Interactive Weather Map
Tropical Storm Tracking
New forecast layout! Learn more

10-Day Weather Forecast

Advertisements
Track Severe Weather on mobile